createdAt,value
2018-09-22T00:01:41.833Z,86.80
2018-09-22T00:04:15.054Z,87.30
2018-09-22T00:06:46.136Z,87.20
2018-09-22T00:09:18.823Z,87.00
2018-09-22T00:11:50.824Z,87.10
2018-09-22T00:14:21.843Z,86.70
2018-09-22T00:16:57.421Z,86.50
2018-09-22T00:19:29.403Z,86.40
2018-09-22T00:22:02.355Z,86.20
2018-09-22T00:24:33.397Z,86.20
2018-09-22T00:27:06.282Z,85.70
2018-09-22T00:29:38.533Z,85.60
2018-09-22T00:32:09.974Z,86.20
2018-09-22T00:34:43.688Z,87.80
2018-09-22T00:37:15.297Z,89.60
2018-09-22T00:39:46.709Z,92.30
2018-09-22T00:42:18.123Z,93.90
2018-09-22T00:44:49.227Z,95.30
2018-09-22T00:47:20.091Z,95.60
2018-09-22T00:49:50.551Z,96.90
2018-09-22T00:52:21.926Z,96.00
2018-09-22T00:54:53.075Z,96.60
2018-09-22T00:57:24.904Z,96.30
2018-09-22T00:59:56.388Z,96.40
2018-09-22T01:02:28.402Z,96.60
2018-09-22T01:04:59.953Z,96.80
2018-09-22T01:07:31.023Z,96.60
2018-09-22T01:10:04.863Z,96.80
2018-09-22T01:12:36.481Z,97.00
2018-09-22T01:15:09.084Z,97.30
2018-09-22T01:17:41.141Z,97.20
2018-09-22T01:20:12.424Z,96.90
2018-09-22T01:22:45.083Z,96.20
2018-09-22T01:25:16.302Z,96.00
2018-09-22T01:27:47.610Z,95.60
2018-09-22T01:30:19.422Z,95.50
2018-09-22T01:32:55.602Z,95.50
2018-09-22T01:35:26.741Z,94.70
2018-09-22T01:37:57.947Z,94.80
2018-09-22T01:40:29.115Z,94.70
2018-09-22T01:43:00.179Z,94.90
2018-09-22T01:45:35.718Z,95.00
2018-09-22T01:48:07.387Z,94.70
2018-09-22T01:50:38.842Z,94.60
2018-09-22T01:53:09.644Z,94.70
2018-09-22T01:55:41.093Z,94.70
2018-09-22T01:58:14.534Z,94.20
2018-09-22T02:00:45.197Z,94.30
2018-09-22T02:03:17.007Z,94.50
2018-09-22T02:05:48.642Z,94.60
2018-09-22T02:08:20.306Z,94.40
2018-09-22T02:10:51.861Z,94.50
2018-09-22T02:13:23.299Z,94.30
2018-09-22T02:15:54.609Z,94.10
2018-09-22T02:18:25.593Z,93.90
2018-09-22T02:20:56.495Z,93.90
2018-09-22T02:23:27.983Z,93.80
2018-09-22T02:25:59.102Z,93.80
2018-09-22T02:28:30.537Z,93.50
2018-09-22T02:31:01.936Z,93.30
2018-09-22T02:33:33.264Z,93.30
2018-09-22T02:36:04.434Z,93.10
2018-09-22T02:38:40.449Z,93.00
2018-09-22T02:41:11.121Z,93.00
2018-09-22T02:43:42.502Z,93.10
2018-09-22T02:46:13.843Z,93.00
2018-09-22T02:48:44.694Z,92.90
2018-09-22T02:51:15.916Z,92.90
2018-09-22T02:53:47.246Z,92.70
2018-09-22T02:56:18.507Z,92.80
2018-09-22T02:58:50.836Z,92.50
2018-09-22T03:01:21.985Z,92.60
2018-09-22T03:03:53.461Z,92.70
2018-09-22T03:06:24.832Z,92.50
2018-09-22T03:08:57.170Z,92.30
2018-09-22T03:11:28.715Z,92.30
2018-09-22T03:13:59.934Z,92.50
2018-09-22T03:16:30.542Z,92.80
2018-09-22T03:19:02.210Z,92.60
2018-09-22T03:21:33.779Z,92.70
2018-09-22T03:24:05.019Z,92.90
2018-09-22T03:26:36.248Z,92.80
2018-09-22T03:29:07.329Z,92.80
2018-09-22T03:31:39.192Z,92.70
2018-09-22T03:34:11.637Z,92.50
2018-09-22T03:36:43.182Z,92.60
2018-09-22T03:39:14.099Z,92.60
2018-09-22T03:41:45.825Z,92.80
2018-09-22T03:44:16.720Z,92.40
2018-09-22T03:46:47.931Z,92.50
2018-09-22T03:49:19.555Z,92.10
2018-09-22T03:51:50.860Z,91.90
2018-09-22T03:54:21.478Z,92.10
2018-09-22T03:56:52.720Z,92.20
2018-09-22T03:59:24.185Z,92.20
2018-09-22T04:01:55.030Z,92.10
2018-09-22T04:04:26.614Z,91.80
2018-09-22T04:06:57.196Z,91.90
2018-09-22T04:09:27.628Z,91.60
2018-09-22T04:11:58.611Z,91.60
2018-09-22T04:14:30.766Z,91.40
2018-09-22T04:17:02.085Z,91.20
2018-09-22T04:19:33.535Z,91.20
2018-09-22T04:22:04.779Z,91.20
2018-09-22T04:24:35.785Z,91.10
2018-09-22T04:27:07.138Z,91.10
2018-09-22T04:29:38.633Z,91.00
2018-09-22T04:32:09.493Z,90.90
2018-09-22T04:34:40.663Z,91.00
2018-09-22T04:37:12.464Z,90.90
2018-09-22T04:39:43.848Z,90.90
2018-09-22T04:42:14.912Z,90.90
2018-09-22T04:44:46.473Z,91.10
2018-09-22T04:47:17.252Z,90.70
2018-09-22T04:49:49.970Z,90.60
2018-09-22T04:52:21.670Z,90.70
2018-09-22T04:54:52.960Z,90.80
2018-09-22T04:57:23.951Z,90.90
2018-09-22T04:59:55.050Z,90.70
2018-09-22T05:02:28.378Z,91.10
2018-09-22T05:04:59.728Z,91.30
2018-09-22T05:07:30.741Z,91.40
2018-09-22T05:10:01.765Z,91.50
2018-09-22T05:12:32.899Z,91.30
2018-09-22T05:15:04.256Z,91.40
2018-09-22T05:17:36.880Z,91.40
2018-09-22T05:20:07.697Z,91.20
2018-09-22T05:22:39.324Z,91.40
2018-09-22T05:25:10.993Z,91.30
2018-09-22T05:27:42.672Z,91.40
2018-09-22T05:30:14.465Z,91.40
2018-09-22T05:32:45.958Z,91.30
2018-09-22T05:35:17.506Z,91.40
2018-09-22T05:37:49.480Z,91.10
2018-09-22T05:40:20.693Z,91.10
2018-09-22T05:42:52.095Z,91.20
2018-09-22T05:45:23.580Z,91.30
2018-09-22T05:47:54.961Z,91.40
2018-09-22T05:50:26.311Z,91.30
2018-09-22T05:52:55.921Z,91.30
2018-09-22T05:55:25.709Z,91.40
2018-09-22T05:57:55.581Z,91.40
2018-09-22T06:00:25.722Z,91.40
2018-09-22T06:02:56.825Z,91.50
2018-09-22T06:05:28.265Z,91.50
2018-09-22T06:07:58.625Z,91.60
2018-09-22T06:10:34.048Z,91.50
2018-09-22T06:13:04.663Z,91.40
2018-09-22T06:15:34.857Z,91.40
2018-09-22T06:18:04.717Z,91.30
2018-09-22T06:20:34.794Z,91.20
2018-09-22T06:23:04.873Z,90.90
2018-09-22T06:25:35.287Z,90.90
2018-09-22T06:28:05.133Z,91.00
2018-09-22T06:30:35.341Z,90.70
2018-09-22T06:33:06.393Z,90.60
2018-09-22T06:35:36.199Z,90.30
2018-09-22T06:38:06.587Z,90.50
2018-09-22T06:40:36.761Z,90.40
2018-09-22T06:43:06.345Z,90.20
2018-09-22T06:45:35.789Z,90.10
2018-09-22T06:48:05.659Z,89.90
2018-09-22T06:50:35.241Z,89.80
2018-09-22T06:53:04.659Z,89.80
2018-09-22T06:55:34.375Z,89.80
2018-09-22T06:58:03.964Z,89.70
2018-09-22T07:00:41.931Z,89.50
2018-09-22T07:03:11.390Z,89.80
2018-09-22T07:05:41.274Z,89.50
2018-09-22T07:08:10.782Z,89.60
2018-09-22T07:10:40.413Z,89.30
2018-09-22T07:13:09.980Z,88.90
2018-09-22T07:15:39.508Z,88.40
2018-09-22T07:18:09.434Z,88.40
2018-09-22T07:20:44.149Z,88.20
2018-09-22T07:23:16.317Z,88.30
2018-09-22T07:25:47.559Z,87.90
2018-09-22T07:28:18.139Z,88.10
2018-09-22T07:30:51.921Z,88.10
2018-09-22T07:33:23.081Z,88.00
2018-09-22T07:35:54.088Z,87.80
2018-09-22T07:38:25.817Z,87.80
2018-09-22T07:40:56.888Z,88.00
2018-09-22T07:43:33.604Z,87.60
2018-09-22T07:46:09.094Z,87.50
2018-09-22T07:48:40.858Z,87.30
2018-09-22T07:51:12.023Z,87.00
2018-09-22T07:53:43.047Z,86.50
2018-09-22T07:56:13.716Z,86.10
2018-09-22T07:58:44.921Z,86.40
2018-09-22T08:01:16.501Z,85.70
2018-09-22T08:03:48.904Z,85.20
2018-09-22T08:06:19.872Z,85.10
2018-09-22T08:08:51.000Z,84.40
2018-09-22T08:11:22.143Z,84.50
2018-09-22T08:13:53.884Z,84.40
2018-09-22T08:16:25.129Z,84.30
2018-09-22T08:18:56.993Z,84.50
2018-09-22T08:21:30.814Z,85.10
2018-09-22T08:24:01.954Z,84.20
2018-09-22T08:26:35.157Z,84.20
2018-09-22T08:29:05.786Z,83.70
2018-09-22T08:31:37.873Z,84.00
2018-09-22T08:34:09.039Z,84.00
2018-09-22T08:36:40.205Z,83.90
2018-09-22T08:39:12.630Z,83.10
2018-09-22T08:41:43.575Z,83.40
2018-09-22T08:44:14.554Z,82.80
2018-09-22T08:46:45.706Z,82.60
2018-09-22T08:49:16.399Z,82.40
2018-09-22T08:51:46.957Z,82.00
2018-09-22T08:54:18.474Z,81.80
2018-09-22T08:56:51.199Z,81.90
2018-09-22T08:59:21.167Z,81.50
2018-09-22T09:01:50.864Z,81.50
2018-09-22T09:04:20.181Z,81.30
2018-09-22T09:06:49.695Z,80.80
2018-09-22T09:09:19.551Z,79.80
2018-09-22T09:11:49.095Z,80.60
2018-09-22T09:14:19.975Z,80.30
2018-09-22T09:16:49.967Z,79.90
2018-09-22T09:19:22.211Z,79.90
2018-09-22T09:21:51.695Z,79.90
2018-09-22T09:24:21.629Z,79.50
2018-09-22T09:26:51.277Z,79.40
2018-09-22T09:29:20.773Z,78.40
2018-09-22T09:31:50.943Z,77.90
2018-09-22T09:34:20.364Z,77.20
2018-09-22T09:36:51.225Z,76.30
2018-09-22T09:39:20.970Z,75.00
2018-09-22T09:41:52.385Z,74.60
2018-09-22T09:44:22.007Z,75.40
2018-09-22T09:46:51.889Z,74.60
2018-09-22T09:49:21.553Z,72.70
2018-09-22T09:51:51.104Z,73.40
2018-09-22T09:54:20.620Z,72.80
2018-09-22T09:56:50.132Z,73.40
2018-09-22T09:59:21.002Z,73.40
2018-09-22T10:01:50.873Z,72.30
2018-09-22T10:04:20.858Z,72.70
2018-09-22T10:06:50.795Z,72.60
2018-09-22T10:09:21.248Z,72.30
2018-09-22T10:11:51.659Z,73.20
2018-09-22T10:14:21.904Z,72.80
2018-09-22T10:16:52.145Z,71.70
2018-09-22T10:19:27.572Z,69.60
2018-09-22T10:21:57.842Z,68.90
2018-09-22T10:24:28.012Z,67.50
2018-09-22T10:26:58.023Z,66.80
2018-09-22T10:29:31.532Z,66.80
2018-09-22T10:32:01.790Z,67.20
2018-09-22T10:34:32.637Z,67.50
2018-09-22T10:37:01.940Z,67.10
2018-09-22T10:39:32.246Z,66.10
2018-09-22T10:42:02.069Z,66.70
2018-09-22T10:44:31.821Z,67.80
2018-09-22T10:47:01.357Z,68.20
2018-09-22T10:49:33.083Z,69.50
2018-09-22T10:52:02.475Z,70.00
2018-09-22T10:54:32.155Z,70.60
2018-09-22T10:57:01.849Z,69.30
2018-09-22T10:59:31.342Z,69.40
2018-09-22T11:02:01.282Z,68.40
2018-09-22T11:04:30.655Z,68.40
2018-09-22T11:07:11.822Z,67.70
2018-09-22T11:09:41.119Z,68.30
2018-09-22T11:12:11.227Z,69.40
2018-09-22T11:14:42.062Z,70.00
2018-09-22T11:17:11.613Z,70.90
2018-09-22T11:19:43.533Z,70.50
2018-09-22T11:22:13.027Z,70.50
2018-09-22T11:24:42.810Z,70.70
2018-09-22T11:27:12.688Z,70.80
2018-09-22T11:29:44.255Z,71.20
2018-09-22T11:32:13.468Z,71.90
2018-09-22T11:34:43.936Z,72.20
2018-09-22T11:37:13.498Z,71.50
2018-09-22T11:39:42.927Z,71.00
2018-09-22T11:42:12.616Z,70.10
2018-09-22T11:44:43.028Z,69.60
2018-09-22T11:47:12.844Z,70.10
2018-09-22T11:49:45.367Z,70.40
2018-09-22T11:52:15.175Z,70.40
2018-09-22T11:54:48.752Z,70.50
2018-09-22T11:57:18.189Z,71.10
2018-09-22T11:59:47.480Z,71.30
2018-09-22T12:02:17.300Z,71.60
2018-09-22T12:04:47.174Z,71.70
2018-09-22T12:07:17.379Z,71.70
2018-09-22T12:09:46.559Z,71.60
2018-09-22T12:12:16.925Z,71.90
2018-09-22T12:14:46.787Z,72.20
2018-09-22T12:17:17.886Z,72.70
2018-09-22T12:19:48.063Z,73.20
2018-09-22T12:22:18.180Z,73.70
2018-09-22T12:24:48.109Z,74.30
2018-09-22T12:27:18.537Z,75.20
2018-09-22T12:29:48.082Z,75.40
2018-09-22T12:32:18.392Z,76.00
2018-09-22T12:34:47.654Z,76.40
2018-09-22T12:37:17.761Z,76.80
2018-09-22T12:39:47.241Z,76.60
2018-09-22T12:42:17.977Z,76.40
2018-09-22T12:44:48.084Z,76.60
2018-09-22T12:47:18.770Z,76.70
2018-09-22T12:49:48.341Z,77.30
2018-09-22T12:52:19.112Z,77.40
2018-09-22T12:54:48.472Z,77.40
2018-09-22T12:57:18.787Z,77.40
2018-09-22T12:59:48.416Z,77.60
2018-09-22T13:02:18.443Z,77.70
2018-09-22T13:04:48.890Z,77.90
2018-09-22T13:07:19.372Z,77.60
2018-09-22T13:09:48.951Z,77.60
2018-09-22T13:12:19.024Z,77.70
2018-09-22T13:14:48.376Z,77.50
2018-09-22T13:17:18.836Z,77.30
2018-09-22T13:19:48.476Z,76.20
2018-09-22T13:22:21.332Z,76.60
2018-09-22T13:24:51.376Z,76.30
2018-09-22T13:27:25.528Z,76.40
2018-09-22T13:29:55.062Z,76.30
2018-09-22T13:32:24.846Z,75.50
2018-09-22T13:34:56.831Z,75.70
2018-09-22T13:37:26.653Z,76.40
2018-09-22T13:39:57.281Z,76.70
2018-09-22T13:42:27.300Z,76.80
2018-09-22T13:44:57.367Z,76.80
2018-09-22T13:47:27.060Z,77.00
2018-09-22T13:49:57.090Z,77.50
2018-09-22T13:52:27.055Z,77.30
2018-09-22T13:54:56.931Z,78.20
2018-09-22T13:57:26.951Z,78.40
2018-09-22T13:59:56.618Z,80.10
2018-09-22T14:02:27.972Z,81.90
2018-09-22T14:04:58.136Z,83.30
2018-09-22T14:07:27.990Z,83.80
2018-09-22T14:09:58.385Z,84.30
2018-09-22T14:12:36.011Z,85.00
2018-09-22T14:15:05.953Z,85.60
2018-09-22T14:17:36.156Z,85.40
2018-09-22T14:20:06.476Z,84.50
2018-09-22T14:22:36.298Z,85.40
2018-09-22T14:25:06.045Z,86.50
2018-09-22T14:27:35.906Z,87.10
2018-09-22T14:30:06.026Z,86.30
2018-09-22T14:32:36.072Z,85.90
2018-09-22T14:35:06.042Z,85.60
2018-09-22T14:37:39.315Z,84.80
2018-09-22T14:40:09.379Z,85.00
2018-09-22T14:42:39.309Z,85.90
2018-09-22T14:45:09.115Z,86.00
2018-09-22T14:47:39.111Z,86.40
2018-09-22T14:50:09.115Z,86.00
2018-09-22T14:52:38.947Z,86.10
2018-09-22T14:55:09.005Z,86.80
2018-09-22T14:57:39.091Z,86.70
2018-09-22T15:00:09.075Z,86.40
2018-09-22T15:02:39.228Z,87.10
2018-09-22T15:05:09.802Z,87.40
2018-09-22T15:07:39.566Z,85.70
2018-09-22T15:10:09.227Z,86.50
2018-09-22T15:12:39.542Z,87.70
2018-09-22T15:15:09.679Z,88.10
2018-09-22T15:17:39.740Z,89.80
2018-09-22T15:20:09.723Z,90.00
2018-09-22T15:22:39.500Z,91.40
2018-09-22T15:25:09.027Z,91.60
2018-09-22T15:27:38.520Z,91.80
2018-09-22T15:30:08.480Z,91.90
2018-09-22T15:32:38.674Z,92.60
2018-09-22T15:35:08.734Z,92.20
2018-09-22T15:37:38.770Z,92.00
2018-09-22T15:40:10.772Z,93.00
2018-09-22T15:42:40.962Z,93.20
2018-09-22T15:45:11.318Z,93.60
2018-09-22T15:47:41.636Z,94.00
2018-09-22T15:50:12.162Z,94.00
2018-09-22T15:52:42.032Z,93.50
2018-09-22T15:55:12.934Z,93.80
2018-09-22T15:57:43.234Z,94.10
2018-09-22T16:00:16.907Z,94.30
2018-09-22T16:02:47.531Z,94.20
2018-09-22T16:05:18.556Z,93.00
2018-09-22T16:07:47.976Z,94.40
2018-09-22T16:10:17.839Z,94.90
2018-09-22T16:12:48.087Z,95.00
2018-09-22T16:15:17.440Z,95.10
2018-09-22T16:17:49.589Z,94.90
2018-09-22T16:20:19.057Z,95.20
2018-09-22T16:22:48.643Z,94.00
2018-09-22T16:25:18.041Z,95.30
2018-09-22T16:27:57.628Z,94.60
2018-09-22T16:30:28.231Z,94.60
2018-09-22T16:32:59.471Z,95.50
2018-09-22T16:35:30.391Z,95.20
2018-09-22T16:38:00.324Z,94.50
2018-09-22T16:40:31.711Z,95.20
2018-09-22T16:43:01.460Z,94.60
2018-09-22T16:45:32.390Z,95.60
2018-09-22T16:48:02.971Z,96.40
2018-09-22T16:50:33.082Z,95.40
2018-09-22T16:53:02.833Z,95.10
2018-09-22T16:55:32.869Z,95.90
2018-09-22T16:58:03.143Z,94.90
2018-09-22T17:00:36.779Z,95.60
2018-09-22T17:03:07.404Z,94.90
2018-09-22T17:05:46.507Z,96.20
2018-09-22T17:08:17.326Z,96.60
2018-09-22T17:10:46.847Z,97.20
2018-09-22T17:13:16.961Z,95.90
2018-09-22T17:18:51.815Z,96.70
2018-09-22T17:21:21.543Z,97.70
2018-09-22T17:23:58.553Z,98.40
2018-09-22T17:26:32.448Z,98.60
2018-09-22T17:29:02.325Z,98.90
2018-09-22T17:31:32.890Z,99.50
2018-09-22T17:34:02.866Z,98.70
2018-09-22T17:36:36.575Z,97.10
2018-09-22T17:39:08.815Z,98.30
2018-09-22T17:41:38.771Z,99.10
2018-09-22T17:44:08.910Z,99.60
2018-09-22T17:46:39.955Z,99.20
2018-09-22T17:49:10.246Z,98.80
2018-09-22T17:51:40.135Z,98.40
2018-09-22T17:54:10.092Z,98.60
2018-09-22T17:56:39.861Z,98.90
2018-09-22T17:59:12.193Z,99.10
2018-09-22T18:01:42.166Z,99.30
2018-09-22T18:04:12.162Z,99.90
2018-09-22T18:06:42.242Z,99.90
2018-09-22T18:09:16.660Z,99.90
2018-09-22T18:11:46.542Z,99.90
2018-09-22T18:14:16.938Z,99.90
2018-09-22T18:16:48.159Z,99.90
2018-09-22T18:19:18.476Z,99.90
2018-09-22T18:21:48.757Z,99.90
2018-09-22T18:24:18.661Z,99.90
2018-09-22T18:26:48.651Z,99.90
2018-09-22T18:29:18.241Z,99.90
2018-09-22T18:31:55.039Z,99.90
2018-09-22T18:34:35.158Z,99.90
2018-09-22T18:37:05.961Z,99.90
2018-09-22T18:39:37.848Z,99.90
2018-09-22T18:42:11.852Z,99.90
2018-09-22T18:44:42.117Z,99.90
2018-09-22T18:47:15.231Z,99.90
2018-09-22T18:49:49.749Z,99.50
2018-09-22T18:52:21.450Z,99.60
2018-09-22T18:54:51.866Z,99.60
2018-09-22T18:57:25.034Z,99.50
2018-09-22T18:59:56.157Z,99.70
2018-09-22T19:02:26.905Z,99.90
2018-09-22T19:04:57.844Z,99.90
2018-09-22T19:07:28.013Z,99.90
2018-09-22T19:09:59.336Z,99.60
2018-09-22T19:12:30.149Z,99.60
2018-09-22T19:15:05.956Z,99.90
2018-09-22T19:17:47.437Z,99.90
2018-09-22T19:21:01.148Z,99.90
2018-09-22T19:23:53.939Z,99.90
2018-09-22T19:26:28.494Z,99.90
2018-09-22T19:29:02.736Z,99.90
2018-09-22T19:31:37.815Z,99.90
2018-09-22T19:34:10.754Z,99.80
2018-09-22T19:36:43.720Z,99.90
2018-09-22T19:39:20.056Z,99.90
2018-09-22T19:41:55.478Z,99.90
2018-09-22T19:44:31.059Z,99.90
2018-09-22T19:47:07.972Z,99.90
2018-09-22T19:49:44.359Z,99.90
2018-09-22T19:52:17.797Z,99.90
2018-09-22T19:54:47.705Z,99.90
2018-09-22T19:57:17.686Z,99.90
2018-09-22T19:59:47.709Z,99.90
2018-09-22T20:02:21.119Z,99.90
2018-09-22T20:04:50.734Z,99.90
2018-09-22T20:07:21.030Z,99.90
2018-09-22T20:09:51.756Z,99.90
2018-09-22T20:12:21.020Z,99.90
2018-09-22T20:14:50.963Z,99.90
2018-09-22T20:17:21.010Z,99.90
2018-09-22T20:19:50.866Z,99.90
2018-09-22T20:22:19.998Z,99.90
2018-09-22T20:24:49.441Z,99.90
2018-09-22T20:27:18.723Z,99.90
2018-09-22T20:29:48.744Z,99.90
2018-09-22T20:32:18.404Z,99.90
2018-09-22T20:34:48.429Z,99.90
2018-09-22T20:37:18.597Z,99.90
2018-09-22T20:39:48.295Z,99.90
2018-09-22T20:42:18.636Z,99.90
2018-09-22T20:44:48.281Z,99.90
2018-09-22T20:47:17.749Z,99.90
2018-09-22T20:49:47.631Z,99.90
2018-09-22T20:52:17.371Z,99.90
2018-09-22T20:54:46.930Z,99.90
2018-09-22T20:57:17.225Z,99.90
2018-09-22T20:59:46.791Z,99.90
2018-09-22T21:02:16.787Z,99.90
2018-09-22T21:04:46.359Z,99.90
2018-09-22T21:07:16.822Z,99.90
2018-09-22T21:09:46.149Z,99.90
2018-09-22T21:12:15.780Z,99.90
2018-09-22T21:14:47.359Z,99.90
2018-09-22T21:17:16.815Z,99.90
2018-09-22T21:19:46.361Z,99.90
2018-09-22T21:22:16.663Z,99.90
2018-09-22T21:24:46.243Z,99.90
2018-09-22T21:27:15.945Z,99.90
2018-09-22T21:29:46.633Z,99.90
2018-09-22T21:32:18.070Z,99.90
2018-09-22T21:34:47.497Z,99.90
2018-09-22T21:37:17.281Z,99.90
2018-09-22T21:39:48.231Z,99.90
2018-09-22T21:42:18.656Z,99.90
2018-09-22T21:44:48.021Z,99.90
2018-09-22T21:47:20.714Z,99.90
2018-09-22T21:49:51.592Z,99.90
2018-09-22T21:52:24.158Z,99.90
2018-09-22T21:54:56.627Z,99.90
2018-09-22T21:57:31.935Z,99.90
2018-09-22T22:00:02.799Z,99.90
2018-09-22T22:02:32.538Z,99.90
2018-09-22T22:05:02.463Z,99.90
2018-09-22T22:07:33.336Z,99.90
2018-09-22T22:10:06.172Z,99.90
2018-09-22T22:12:37.296Z,99.90
2018-09-22T22:15:10.104Z,99.90
2018-09-22T22:17:43.121Z,99.90
2018-09-22T22:20:12.731Z,99.90
2018-09-22T22:22:45.917Z,99.90
2018-09-22T22:25:18.750Z,99.90
2018-09-22T22:27:49.660Z,99.90
2018-09-22T22:30:22.322Z,99.90
2018-09-22T22:32:52.411Z,99.90
2018-09-22T22:35:22.284Z,99.90
2018-09-22T22:37:55.416Z,99.90
2018-09-22T22:40:28.399Z,99.90
2018-09-22T22:43:01.516Z,99.90
2018-09-22T22:45:31.834Z,99.90
2018-09-22T22:48:02.101Z,99.90
2018-09-22T22:50:32.538Z,99.90
2018-09-22T22:53:02.346Z,99.90
2018-09-22T22:55:32.388Z,99.90
2018-09-22T22:58:02.708Z,99.90
2018-09-22T23:00:32.649Z,99.90
2018-09-22T23:03:03.642Z,99.90
2018-09-22T23:05:33.476Z,99.90
2018-09-22T23:08:06.627Z,99.90
2018-09-22T23:10:36.430Z,99.90
2018-09-22T23:13:08.091Z,99.90
2018-09-22T23:15:37.567Z,99.90
2018-09-22T23:18:07.107Z,99.90
2018-09-22T23:20:39.384Z,99.90
2018-09-22T23:23:09.527Z,99.90
2018-09-22T23:25:39.522Z,99.90
2018-09-22T23:28:12.077Z,99.90
2018-09-22T23:30:44.213Z,99.90
2018-09-22T23:33:13.762Z,99.90
2018-09-22T23:35:43.872Z,99.90
2018-09-22T23:38:16.461Z,99.90
2018-09-22T23:40:47.835Z,99.90
2018-09-22T23:43:17.943Z,99.90
2018-09-22T23:45:54.130Z,99.90
2018-09-22T23:48:30.573Z,99.90
2018-09-22T23:50:59.840Z,99.90
2018-09-22T23:53:32.246Z,99.90
2018-09-22T23:56:01.611Z,99.90
2018-09-22T23:58:31.143Z,99.90
